Time;durP1;ratioP1;P1;durP2;ratioP2;P2;SDS_P1;SDS_P2;PMS_P1;PMS_P2;Temp;Humidity;BMP_temperature;BMP_pressure;BME280_temperature;BME280_humidity;BME280_pressure;Samples;Min_cycle;Max_cycle;Signal;HPM_P1;HPM_P2
2022/03/12 00:02:14;;;;;;;9.50;5.70;;;8.20;47.40;;;;;;5035364;28;20045;-72
2022/03/12 00:04:41;;;;;;;12.83;5.60;;;8.20;47.50;;;;;;5035710;28;20138;-72
2022/03/12 00:07:11;;;;;;;11.27;6.65;;;8.20;47.80;;;;;;5018926;28;20366;-72
2022/03/12 00:09:37;;;;;;;9.75;5.53;;;8.10;47.90;;;;;;5053123;28;20099;-72
2022/03/12 00:12:04;;;;;;;15.13;5.67;;;8.10;47.80;;;;;;5052764;28;20084;-72
2022/03/12 00:14:34;;;;;;;13.05;6.30;;;8.10;47.90;;;;;;5053229;28;20088;-72
2022/03/12 00:17:00;;;;;;;12.85;5.43;;;8.10;47.70;;;;;;5035311;28;20045;-72
2022/03/12 00:19:26;;;;;;;12.97;5.83;;;8.00;47.70;;;;;;5053017;28;20128;-72
2022/03/12 00:21:52;;;;;;;12.63;5.37;;;8.00;47.90;;;;;;5052421;28;20098;-72
2022/03/12 00:24:18;;;;;;;10.85;5.95;;;7.90;47.60;;;;;;5019035;28;20135;-72
2022/03/12 00:26:46;;;;;;;10.63;6.05;;;7.90;48.00;;;;;;5034509;28;20041;-72
2022/03/12 00:29:15;;;;;;;11.30;5.85;;;7.90;48.00;;;;;;5052601;28;20123;-72
2022/03/12 00:31:45;;;;;;;14.30;5.97;;;7.90;47.70;;;;;;5052824;28;20084;-72
2022/03/12 00:34:13;;;;;;;10.38;5.05;;;7.90;47.70;;;;;;5018585;28;20122;-72
2022/03/12 00:36:39;;;;;;;10.07;5.82;;;7.90;48.00;;;;;;5052783;28;20046;-72
2022/03/12 00:39:09;;;;;;;11.05;6.20;;;7.90;48.00;;;;;;5034962;28;20088;-72
2022/03/12 00:41:36;;;;;;;13.40;6.00;;;7.90;47.90;;;;;;5034684;28;20041;-72
2022/03/12 00:44:02;;;;;;;13.95;6.32;;;7.80;47.90;;;;;;5034767;28;20060;-72
2022/03/12 00:46:28;;;;;;;10.68;5.72;;;7.80;48.20;;;;;;5034820;28;20448;-72
2022/03/12 00:48:54;;;;;;;9.40;5.50;;;7.80;48.30;;;;;;5018463;28;20045;-72
2022/03/12 00:51:20;;;;;;;9.30;6.03;;;7.80;48.10;;;;;;5052590;28;20041;-70
2022/03/12 00:53:46;;;;;;;14.67;5.63;;;7.80;48.10;;;;;;5035086;28;20057;-70
2022/03/12 00:56:11;;;;;;;10.60;6.07;;;7.80;48.00;;;;;;5052286;28;20060;-71
2022/03/12 00:58:38;;;;;;;10.50;5.30;;;7.70;47.80;;;;;;5035022;28;20059;-71
2022/03/12 01:01:06;;;;;;;10.48;5.80;;;7.80;47.90;;;;;;5052240;28;20060;-71
2022/03/12 01:03:32;;;;;;;11.68;6.18;;;7.80;48.20;;;;;;5035023;28;20052;-71
2022/03/12 01:06:00;;;;;;;11.02;6.07;;;7.70;47.90;;;;;;5034613;28;20186;-71
2022/03/12 01:08:27;;;;;;;11.70;6.38;;;7.70;47.80;;;;;;5052664;28;20041;-71
2022/03/12 01:10:55;;;;;;;8.52;5.30;;;7.70;48.70;;;;;;5052189;28;20153;-73
2022/03/12 01:13:21;;;;;;;9.20;5.40;;;7.70;47.70;;;;;;5052487;28;20053;-71
2022/03/12 01:15:48;;;;;;;9.93;5.45;;;7.70;47.30;;;;;;5052392;28;20045;-71
2022/03/12 01:18:16;;;;;;;9.52;6.38;;;7.70;47.50;;;;;;5052158;28;20061;-71
2022/03/12 01:20:43;;;;;;;9.45;5.32;;;7.80;47.30;;;;;;5035053;28;20049;-71
2022/03/12 01:23:10;;;;;;;8.98;5.55;;;7.70;47.30;;;;;;5052072;28;20048;-71
2022/03/12 01:25:36;;;;;;;11.25;5.78;;;7.80;47.20;;;;;;5052303;28;20084;-71
2022/03/12 01:28:02;;;;;;;9.80;5.60;;;7.80;47.10;;;;;;5051723;28;20072;-72
2022/03/12 01:30:30;;;;;;;10.00;5.45;;;7.80;47.30;;;;;;5052264;28;20057;-72
2022/03/12 01:32:56;;;;;;;10.45;5.50;;;7.90;46.80;;;;;;5052018;28;20103;-72
2022/03/12 01:35:24;;;;;;;9.60;5.57;;;7.90;47.00;;;;;;5018078;28;20037;-71
2022/03/12 01:37:49;;;;;;;9.82;5.72;;;7.90;46.70;;;;;;5020550;28;20052;-71
2022/03/12 01:40:15;;;;;;;11.20;5.70;;;7.90;46.10;;;;;;5055680;28;20485;-71
2022/03/12 01:42:43;;;;;;;11.33;5.97;;;7.90;46.30;;;;;;5056056;28;20045;-71
2022/03/12 01:45:12;;;;;;;12.10;6.03;;;8.00;45.90;;;;;;5038158;28;20052;-72
2022/03/12 01:47:39;;;;;;;11.00;6.10;;;8.00;45.80;;;;;;5055511;28;20500;-71
2022/03/12 01:50:05;;;;;;;9.43;6.05;;;8.00;45.50;;;;;;5055482;28;20049;-71
2022/03/12 01:52:31;;;;;;;10.23;5.80;;;8.10;45.60;;;;;;5055726;28;20045;-71
2022/03/12 01:54:57;;;;;;;10.03;5.43;;;8.00;46.10;;;;;;5037569;28;20053;-77
2022/03/12 01:57:23;;;;;;;10.13;5.15;;;8.00;45.90;;;;;;5038035;28;20362;-72
2022/03/12 01:59:50;;;;;;;12.37;5.63;;;8.00;46.10;;;;;;5055703;28;20599;-72
2022/03/12 02:02:17;;;;;;;8.90;5.03;;;8.00;45.30;;;;;;5055149;28;20151;-72
2022/03/12 02:04:52;;;;;;;9.98;5.38;;;8.10;45.60;;;;;;5037479;28;20053;-72
2022/03/12 02:07:19;;;;;;;9.48;5.70;;;8.10;45.70;;;;;;5037688;28;20044;-73
2022/03/12 02:09:46;;;;;;;11.93;6.00;;;8.00;45.80;;;;;;5055134;28;20068;-72
2022/03/12 02:12:12;;;;;;;11.73;5.75;;;8.00;45.30;;;;;;5037322;28;20087;-72
2022/03/12 02:14:38;;;;;;;11.77;5.53;;;8.10;45.90;;;;;;5055381;28;20106;-72
2022/03/12 02:17:08;;;;;;;8.07;5.47;;;8.10;45.90;;;;;;5020947;28;20048;-72
2022/03/12 02:19:35;;;;;;;11.15;5.70;;;8.10;45.20;;;;;;5037953;28;20084;-72
2022/03/12 02:22:12;;;;;;;11.15;6.00;;;8.10;45.70;;;;;;5054887;28;20380;-70
2022/03/12 02:24:38;;;;;;;11.18;5.35;;;8.20;45.50;;;;;;5055451;28;20075;-70
2022/03/12 02:27:10;;;;;;;10.40;5.87;;;8.30;45.10;;;;;;5054897;28;20041;-72
2022/03/12 02:29:37;;;;;;;12.40;6.30;;;8.30;44.50;;;;;;5055317;28;20052;-71
2022/03/12 02:32:09;;;;;;;10.32;5.95;;;8.30;45.00;;;;;;5054761;28;20091;-71
2022/03/12 02:34:42;;;;;;;10.35;5.03;;;8.30;45.20;;;;;;5055011;28;20056;-72
2022/03/12 02:37:10;;;;;;;13.57;6.03;;;8.30;44.90;;;;;;5037192;28;20080;-72
2022/03/12 02:39:38;;;;;;;12.20;6.05;;;8.50;44.20;;;;;;5037259;28;20126;-71
2022/03/12 02:42:09;;;;;;;11.45;5.68;;;8.40;44.80;;;;;;5054495;28;20047;-71
2022/03/12 02:44:35;;;;;;;10.00;5.45;;;8.50;44.50;;;;;;5037786;28;20049;-71
2022/03/12 02:47:22;;;;;;;9.90;5.72;;;8.40;44.50;;;;;;5037075;28;20048;-77
2022/03/12 02:49:59;;;;;;;10.55;4.93;;;8.50;44.00;;;;;;5036331;28;20044;-71
2022/03/12 02:52:27;;;;;;;9.52;6.00;;;8.50;44.50;;;;;;5054355;28;20049;-71
2022/03/12 02:54:55;;;;;;;10.32;5.68;;;8.40;45.10;;;;;;5037048;28;20053;-71
2022/03/12 02:57:23;;;;;;;11.63;6.22;;;8.40;44.70;;;;;;5020492;28;20143;-71
2022/03/12 02:59:50;;;;;;;9.70;5.25;;;8.50;45.00;;;;;;5054205;28;20505;-71
2022/03/12 03:02:17;;;;;;;12.07;6.32;;;8.50;44.60;;;;;;5054088;28;20051;-71
2022/03/12 03:04:42;;;;;;;11.00;6.00;;;8.50;45.40;;;;;;5036556;28;20049;-71
2022/03/12 03:07:10;;;;;;;11.13;5.63;;;8.50;44.80;;;;;;5019847;28;20083;-71
2022/03/12 03:09:37;;;;;;;10.35;6.03;;;8.60;44.60;;;;;;5036442;28;20057;-71
2022/03/12 03:12:08;;;;;;;12.95;6.15;;;8.60;44.50;;;;;;5036229;28;20053;-77
2022/03/12 03:14:36;;;;;;;9.25;5.95;;;8.60;44.60;;;;;;5036735;28;20055;-71
2022/03/12 03:17:04;;;;;;;11.75;6.22;;;8.60;44.20;;;;;;5036433;28;20041;-71
2022/03/12 03:19:31;;;;;;;10.35;6.07;;;8.60;44.40;;;;;;5054088;28;20089;-71
2022/03/12 03:21:57;;;;;;;12.07;5.88;;;8.60;44.70;;;;;;5054050;28;20132;-71
2022/03/12 03:24:26;;;;;;;10.82;5.90;;;8.60;44.50;;;;;;5053697;28;20455;-71
2022/03/12 03:26:57;;;;;;;14.48;6.63;;;8.60;45.20;;;;;;5019930;28;20546;-71
2022/03/12 03:29:28;;;;;;;10.18;6.22;;;8.60;45.80;;;;;;5019592;28;20057;-71
2022/03/12 03:31:54;;;;;;;10.50;5.88;;;8.60;46.00;;;;;;5036389;28;20173;-71
2022/03/12 03:34:21;;;;;;;11.02;5.63;;;8.60;46.00;;;;;;5053612;28;20132;-71
2022/03/12 03:36:47;;;;;;;11.18;6.90;;;8.60;46.20;;;;;;5053842;28;20124;-71
2022/03/12 03:39:13;;;;;;;10.27;6.30;;;8.60;46.20;;;;;;5035919;28;20049;-71
2022/03/12 03:41:39;;;;;;;10.48;6.28;;;8.60;46.60;;;;;;5035720;28;20041;-71
2022/03/12 03:44:05;;;;;;;11.33;6.73;;;8.60;47.00;;;;;;5053671;28;20475;-71
2022/03/12 03:46:32;;;;;;;12.07;6.63;;;8.50;47.30;;;;;;5053508;28;20072;-71
2022/03/12 03:48:58;;;;;;;10.77;6.18;;;8.50;47.20;;;;;;5053573;28;20049;-71
2022/03/12 03:51:24;;;;;;;10.20;6.37;;;8.50;47.40;;;;;;5053218;28;20152;-72
2022/03/12 03:53:51;;;;;;;17.52;6.22;;;8.60;47.40;;;;;;5019639;28;20476;-71
2022/03/12 03:56:17;;;;;;;11.85;6.57;;;8.50;47.50;;;;;;5053128;28;20045;-71
2022/03/12 03:58:43;;;;;;;12.98;6.47;;;8.50;47.40;;;;;;5035666;28;20049;-71
2022/03/12 04:01:14;;;;;;;14.47;6.63;;;8.60;47.30;;;;;;5053013;28;20048;-72
2022/03/12 04:03:44;;;;;;;12.70;6.20;;;8.60;47.70;;;;;;5035294;28;20048;-71
2022/03/12 04:06:10;;;;;;;13.55;6.40;;;8.60;48.10;;;;;;5053256;28;20052;-72
2022/03/12 04:08:36;;;;;;;13.00;6.40;;;8.50;48.80;;;;;;5053218;28;20045;-71
2022/03/12 04:11:06;;;;;;;10.70;6.27;;;8.50;49.20;;;;;;5053239;28;20142;-70
2022/03/12 04:13:33;;;;;;;15.70;7.10;;;8.50;50.00;;;;;;5052890;28;20287;-71
2022/03/12 04:16:00;;;;;;;12.40;6.90;;;8.40;50.80;;;;;;5035604;28;20432;-71
2022/03/12 04:18:26;;;;;;;9.40;6.72;;;8.30;51.70;;;;;;5034953;28;20036;-71
2022/03/12 04:20:52;;;;;;;14.15;6.75;;;8.30;52.50;;;;;;5052975;28;20137;-71
2022/03/12 04:23:21;;;;;;;12.00;6.90;;;8.20;53.10;;;;;;5052671;28;20119;-71
2022/03/12 04:25:55;;;;;;;13.38;7.05;;;8.20;53.90;;;;;;5053010;28;20048;-70
2022/03/12 04:28:23;;;;;;;12.60;6.93;;;8.10;55.40;;;;;;5052728;28;20493;-70
2022/03/12 04:30:49;;;;;;;12.98;7.93;;;8.00;55.70;;;;;;5035365;28;20446;-70
2022/03/12 04:33:16;;;;;;;14.52;8.10;;;7.90;57.20;;;;;;5052892;28;20110;-71
2022/03/12 04:35:42;;;;;;;12.77;7.63;;;7.90;57.60;;;;;;5052938;28;20103;-71
2022/03/12 04:38:09;;;;;;;13.10;8.05;;;7.70;59.90;;;;;;5035132;28;20049;-70
2022/03/12 04:40:38;;;;;;;13.32;7.78;;;7.70;60.30;;;;;;5052499;28;20044;-70
2022/03/12 04:43:05;;;;;;;12.95;7.72;;;7.60;61.70;;;;;;5052671;28;20061;-70
2022/03/12 04:45:31;;;;;;;11.90;7.22;;;7.50;62.30;;;;;;5052422;28;20053;-70
2022/03/12 04:47:57;;;;;;;12.07;7.63;;;7.40;62.90;;;;;;5052715;28;20477;-70
2022/03/12 04:50:23;;;;;;;11.52;7.63;;;7.40;63.00;;;;;;5052413;28;20283;-70
2022/03/12 04:52:56;;;;;;;10.43;7.00;;;7.30;64.10;;;;;;5018645;28;20072;-70
2022/03/12 04:55:24;;;;;;;12.90;7.75;;;7.30;64.40;;;;;;5052560;28;20299;-70
2022/03/12 04:57:50;;;;;;;12.52;7.97;;;7.20;65.10;;;;;;5052724;28;20048;-70
2022/03/12 05:00:20;;;;;;;16.67;7.95;;;7.10;65.80;;;;;;5034401;28;20128;-70
2022/03/12 05:02:47;;;;;;;10.88;7.43;;;7.10;66.40;;;;;;5052487;28;20054;-69
2022/03/12 05:05:14;;;;;;;10.48;6.97;;;7.00;66.60;;;;;;5052549;28;20473;-69
2022/03/12 05:07:44;;;;;;;10.98;7.22;;;7.00;67.30;;;;;;5052557;28;20049;-70
2022/03/12 05:10:12;;;;;;;10.63;6.43;;;6.90;67.90;;;;;;5034643;28;20056;-70
2022/03/12 05:12:40;;;;;;;12.45;8.02;;;6.90;68.80;;;;;;5036775;28;20092;-70
2022/03/12 05:15:11;;;;;;;14.25;7.32;;;6.80;69.90;;;;;;5056466;28;20055;-70
2022/03/12 05:17:47;;;;;;;13.10;8.15;;;6.80;69.60;;;;;;5038615;28;20126;-70
2022/03/12 05:20:23;;;;;;;13.60;7.57;;;6.80;70.90;;;;;;5038840;28;20041;-70
2022/03/12 05:22:50;;;;;;;13.13;7.90;;;6.80;71.00;;;;;;5022189;28;20044;-70
2022/03/12 05:25:18;;;;;;;13.18;7.47;;;6.70;71.60;;;;;;5038472;28;20072;-75
2022/03/12 05:27:49;;;;;;;12.23;7.45;;;6.70;71.50;;;;;;5038493;28;20045;-70
2022/03/12 05:30:14;;;;;;;14.93;7.55;;;6.70;70.90;;;;;;5038429;28;20131;-70
2022/03/12 05:32:40;;;;;;;13.03;7.93;;;6.80;71.20;;;;;;5055903;28;20127;-70
2022/03/12 05:35:07;;;;;;;12.02;8.13;;;6.80;71.30;;;;;;5056100;28;20049;-69
2022/03/12 05:37:33;;;;;;;12.20;7.93;;;6.80;71.30;;;;;;5055798;28;20041;-70
2022/03/12 05:39:59;;;;;;;12.67;7.70;;;6.80;71.60;;;;;;5056094;28;20477;-70
2022/03/12 05:42:26;;;;;;;14.43;7.90;;;6.80;70.70;;;;;;5037860;28;20299;-70
2022/03/12 05:44:55;;;;;;;12.63;8.00;;;6.80;70.70;;;;;;5038288;28;20081;-71
2022/03/12 05:47:23;;;;;;;16.30;7.90;;;6.80;71.10;;;;;;5055729;28;20053;-71
2022/03/12 05:49:49;;;;;;;14.32;7.78;;;6.80;70.60;;;;;;5022013;28;20081;-71
2022/03/12 05:52:18;;;;;;;11.40;7.50;;;6.80;70.00;;;;;;5055857;28;20049;-70
2022/03/12 05:54:48;;;;;;;16.95;7.68;;;6.90;69.50;;;;;;5055655;28;20130;-71
2022/03/12 05:57:14;;;;;;;11.55;7.43;;;6.90;69.10;;;;;;5037942;28;20056;-71
2022/03/12 05:59:40;;;;;;;13.05;7.78;;;6.90;67.80;;;;;;5055406;28;20045;-72
2022/03/12 06:02:06;;;;;;;24.95;22.33;;;6.90;68.70;;;;;;5037820;28;20037;-70
2022/03/12 06:04:32;;;;;;;17.97;10.00;;;7.00;68.10;;;;;;5037789;28;20110;-72
2022/03/12 06:06:57;;;;;;;16.58;8.88;;;7.00;67.20;;;;;;5021390;28;20049;-71
2022/03/12 06:09:23;;;;;;;15.53;8.30;;;7.00;68.20;;;;;;5020795;28;20128;-72
2022/03/12 06:11:53;;;;;;;13.80;7.63;;;7.00;67.30;;;;;;5037904;28;20041;-71
2022/03/12 06:14:20;;;;;;;13.07;7.53;;;7.00;67.60;;;;;;5055444;28;20325;-70
2022/03/12 06:16:48;;;;;;;11.93;7.70;;;7.00;68.00;;;;;;5055221;28;20059;-71
2022/03/12 06:19:16;;;;;;;13.45;8.15;;;7.10;67.60;;;;;;5037923;28;20045;-72
2022/03/12 06:21:42;;;;;;;11.70;7.03;;;7.10;67.70;;;;;;5054881;28;20045;-71
2022/03/12 06:24:08;;;;;;;12.98;7.70;;;7.10;67.60;;;;;;5036306;28;20041;-72
2022/03/12 06:26:36;;;;;;;11.90;8.30;;;7.10;67.10;;;;;;5020899;28;20052;-72
2022/03/12 06:29:12;;;;;;;14.77;8.02;;;7.00;66.90;;;;;;5021287;28;20134;-72
2022/03/12 06:31:39;;;;;;;11.75;7.40;;;7.00;67.00;;;;;;5054783;28;20051;-72
2022/03/12 06:34:06;;;;;;;14.48;7.72;;;7.00;67.00;;;;;;5054946;28;20047;-72
2022/03/12 06:36:32;;;;;;;12.93;8.30;;;7.00;66.80;;;;;;5037104;28;20049;-72
2022/03/12 06:38:57;;;;;;;12.30;8.33;;;7.00;66.50;;;;;;5037643;28;20049;-72
2022/03/12 06:41:23;;;;;;;11.17;7.20;;;7.00;66.50;;;;;;5020598;28;20500;-76
2022/03/12 06:43:52;;;;;;;12.50;7.83;;;7.00;66.60;;;;;;5055094;28;20052;-72
2022/03/12 06:46:18;;;;;;;13.65;8.48;;;7.00;67.30;;;;;;5054866;28;20049;-72
2022/03/12 06:48:44;;;;;;;16.08;9.15;;;7.00;66.90;;;;;;5054441;28;20057;-71
2022/03/12 06:51:10;;;;;;;11.53;8.60;;;7.00;67.20;;;;;;5054706;28;20461;-71
2022/03/12 06:53:37;;;;;;;13.53;8.17;;;7.00;66.80;;;;;;5054352;28;20381;-71
2022/03/12 06:56:04;;;;;;;14.23;8.35;;;7.00;66.30;;;;;;5054584;28;20294;-71
2022/03/12 06:58:30;;;;;;;16.05;8.35;;;7.00;66.90;;;;;;5054251;28;20080;-71
2022/03/12 07:00:56;;;;;;;14.10;8.13;;;6.90;67.00;;;;;;5036778;28;20108;-71
2022/03/12 07:03:23;;;;;;;12.55;7.03;;;6.90;67.10;;;;;;5036679;28;20051;-71
2022/03/12 07:05:49;;;;;;;12.93;7.95;;;6.90;66.90;;;;;;5054158;28;20049;-71
2022/03/12 07:08:15;;;;;;;15.07;8.57;;;6.90;66.70;;;;;;5036356;28;20055;-71
2022/03/12 07:10:40;;;;;;;11.13;7.30;;;7.00;67.00;;;;;;5053783;28;20140;-71
2022/03/12 07:13:06;;;;;;;11.20;7.43;;;7.00;67.00;;;;;;5036889;28;20295;-71
2022/03/12 07:15:32;;;;;;;11.60;7.88;;;7.10;66.90;;;;;;5036460;28;20084;-71
2022/03/12 07:17:58;;;;;;;12.70;8.03;;;7.20;66.80;;;;;;5054270;28;20128;-72
2022/03/12 07:20:23;;;;;;;14.17;8.27;;;7.20;66.70;;;;;;5054217;28;20052;-72
2022/03/12 07:22:49;;;;;;;17.27;9.77;;;7.30;67.00;;;;;;5053786;28;20099;-72
2022/03/12 07:25:16;;;;;;;14.30;10.63;;;7.40;67.00;;;;;;5054017;28;20067;-71
2022/03/12 07:27:42;;;;;;;16.30;12.90;;;7.50;66.90;;;;;;5035946;28;20503;-71
2022/03/12 07:30:13;;;;;;;13.38;8.55;;;7.80;67.80;;;;;;5054048;28;20056;-72
2022/03/12 07:32:42;;;;;;;16.60;12.30;;;8.50;66.50;;;;;;5053722;28;20071;-72
2022/03/12 07:35:10;;;;;;;15.50;10.85;;;9.10;65.80;;;;;;5036022;28;20049;-72
2022/03/12 07:37:36;;;;;;;12.48;8.40;;;9.50;64.30;;;;;;5053212;28;20516;-72
2022/03/12 07:40:02;;;;;;;12.33;8.03;;;9.50;62.10;;;;;;5035959;28;20045;-72
2022/03/12 07:42:28;;;;;;;14.05;8.30;;;9.40;62.20;;;;;;5035920;28;20051;-72
2022/03/12 07:44:53;;;;;;;11.07;7.90;;;9.30;62.30;;;;;;5035628;28;20045;-72
2022/03/12 07:47:19;;;;;;;11.40;7.63;;;9.20;61.20;;;;;;5053687;28;20041;-71
2022/03/12 07:49:45;;;;;;;13.23;8.27;;;9.10;61.40;;;;;;5053275;28;20037;-71
2022/03/12 07:52:10;;;;;;;18.23;8.50;;;9.10;61.00;;;;;;5053413;28;20041;-71
2022/03/12 07:54:38;;;;;;;14.00;8.33;;;9.10;61.10;;;;;;5035717;28;20041;-71
2022/03/12 07:57:04;;;;;;;13.68;7.47;;;9.20;61.00;;;;;;5053667;28;20057;-70
2022/03/12 07:59:30;;;;;;;12.53;8.37;;;9.30;61.10;;;;;;5053237;28;20045;-70
2022/03/12 08:01:56;;;;;;;14.93;8.82;;;9.30;60.60;;;;;;5053192;28;20783;-71
2022/03/12 08:04:22;;;;;;;13.38;8.15;;;9.40;60.30;;;;;;5053346;28;20057;-69
2022/03/12 08:06:48;;;;;;;15.57;8.97;;;9.40;60.40;;;;;;5018797;28;20056;-70
2022/03/12 08:09:14;;;;;;;14.95;12.05;;;9.40;60.60;;;;;;5053031;28;20381;-70
2022/03/12 08:11:39;;;;;;;12.73;9.90;;;9.40;59.90;;;;;;5053077;28;20052;-71
2022/03/12 08:14:08;;;;;;;13.93;9.90;;;9.50;60.00;;;;;;5035472;28;20055;-70
2022/03/12 08:16:36;;;;;;;22.38;10.07;;;9.60;60.40;;;;;;5052812;28;20123;-71
2022/03/12 08:19:06;;;;;;;14.98;8.80;;;9.70;59.90;;;;;;5053407;28;20045;-70
2022/03/12 08:21:33;;;;;;;13.45;11.13;;;9.80;60.20;;;;;;5035452;28;20045;-70
2022/03/12 08:23:59;;;;;;;13.63;8.57;;;9.80;59.80;;;;;;5052983;28;20048;-70
2022/03/12 08:26:25;;;;;;;13.75;8.88;;;9.90;59.90;;;;;;5035388;28;20044;-70
2022/03/12 08:28:51;;;;;;;15.03;8.57;;;10.00;60.00;;;;;;5052646;28;20465;-71
2022/03/12 08:31:18;;;;;;;12.07;7.70;;;10.00;60.20;;;;;;5035174;28;20294;-70
2022/03/12 08:33:45;;;;;;;12.40;8.65;;;10.00;60.30;;;;;;5035009;28;20299;-70
2022/03/12 08:36:11;;;;;;;14.07;8.65;;;10.10;60.40;;;;;;5052871;28;20048;-70
2022/03/12 08:38:38;;;;;;;11.90;9.20;;;10.10;60.70;;;;;;5052709;28;20568;-71
2022/03/12 08:41:05;;;;;;;14.45;9.20;;;10.20;60.90;;;;;;5034928;28;20283;-70
2022/03/12 08:43:32;;;;;;;12.00;8.23;;;10.20;61.30;;;;;;5052800;28;20059;-70
2022/03/12 08:46:00;;;;;;;15.65;9.70;;;10.30;61.60;;;;;;5052174;28;20136;-70
2022/03/12 08:48:26;;;;;;;12.38;8.02;;;10.40;61.70;;;;;;5034872;28;20111;-68
2022/03/12 08:50:52;;;;;;;11.80;8.03;;;10.50;61.90;;;;;;5034901;28;20056;-70
2022/03/12 08:53:20;;;;;;;12.52;8.32;;;10.50;62.20;;;;;;5052943;28;20279;-69
2022/03/12 08:55:47;;;;;;;13.90;9.75;;;10.60;62.50;;;;;;5034744;28;20049;-70
2022/03/12 08:58:13;;;;;;;11.73;8.35;;;10.60;62.30;;;;;;5052818;28;20053;-69
2022/03/12 09:00:39;;;;;;;11.67;9.00;;;10.70;62.60;;;;;;5034841;28;20066;-69
2022/03/12 09:03:07;;;;;;;11.30;8.63;;;10.80;62.80;;;;;;5052527;28;20723;-71
2022/03/12 09:05:33;;;;;;;14.10;8.53;;;10.80;63.10;;;;;;5035197;28;20059;-70
2022/03/12 09:07:59;;;;;;;14.47;8.67;;;10.90;63.40;;;;;;5052273;28;20631;-71
2022/03/12 09:10:25;;;;;;;11.90;8.50;;;10.90;63.40;;;;;;5002197;28;20057;-71
2022/03/12 09:12:51;;;;;;;12.60;8.93;;;11.00;64.00;;;;;;5052208;28;20041;-73
2022/03/12 09:15:20;;;;;;;13.70;9.00;;;11.00;64.40;;;;;;5052523;28;20583;-71
2022/03/12 09:17:46;;;;;;;14.17;8.87;;;11.10;64.90;;;;;;5052233;28;20117;-70
2022/03/12 09:20:12;;;;;;;11.87;8.20;;;11.10;65.30;;;;;;5052580;28;20370;-71
2022/03/12 09:22:38;;;;;;;12.20;8.63;;;11.20;65.70;;;;;;5052564;28;20045;-72
2022/03/12 09:25:08;;;;;;;11.13;7.87;;;11.30;66.00;;;;;;5034902;28;20294;-71
2022/03/12 09:27:34;;;;;;;12.13;7.93;;;11.30;66.40;;;;;;5052497;28;20491;-71
2022/03/12 09:30:00;;;;;;;12.27;8.03;;;11.40;66.60;;;;;;5052198;28;20279;-71
2022/03/12 09:32:26;;;;;;;13.03;9.17;;;11.40;67.20;;;;;;5052191;28;20053;-72
2022/03/12 09:34:52;;;;;;;10.67;7.90;;;11.40;67.60;;;;;;5052219;28;20045;-73
2022/03/12 09:37:18;;;;;;;12.57;8.10;;;11.50;68.30;;;;;;5034664;28;20615;-72
2022/03/12 09:39:44;;;;;;;12.80;8.77;;;11.50;68.80;;;;;;5034567;28;20337;-80
2022/03/12 09:42:10;;;;;;;12.17;8.17;;;11.50;69.10;;;;;;5018321;28;20397;-73
2022/03/12 09:44:36;;;;;;;14.57;8.00;;;11.50;69.30;;;;;;5034810;28;20284;-75
2022/03/12 09:47:02;;;;;;;10.93;7.93;;;11.60;69.80;;;;;;5051935;28;20453;-75
2022/03/12 09:49:28;;;;;;;12.17;8.03;;;11.60;70.10;;;;;;5052194;28;20284;-76
2022/03/12 09:51:57;;;;;;;12.93;7.93;;;11.70;70.30;;;;;;5052060;28;20382;-72
2022/03/12 09:54:23;;;;;;;12.53;7.57;;;11.70;71.10;;;;;;5052190;28;20378;-74
2022/03/12 09:56:49;;;;;;;12.60;7.20;;;11.70;71.20;;;;;;5034042;28;20290;-75
2022/03/12 09:59:14;;;;;;;13.37;7.97;;;11.80;71.60;;;;;;5055364;28;20052;-74
2022/03/12 10:01:40;;;;;;;14.93;8.37;;;11.80;71.80;;;;;;5021478;28;20041;-74
2022/03/12 10:04:06;;;;;;;17.70;8.23;;;11.80;72.40;;;;;;5055270;28;20465;-74
2022/03/12 10:06:32;;;;;;;11.03;7.40;;;11.80;72.70;;;;;;5055621;28;20037;-73
2022/03/12 10:08:58;;;;;;;13.83;7.27;;;11.80;73.00;;;;;;5037261;28;20499;-74
2022/03/12 10:11:24;;;;;;;11.47;7.60;;;11.90;73.60;;;;;;5054981;28;20064;-74
2022/03/12 10:13:50;;;;;;;10.30;8.23;;;11.90;73.80;;;;;;5055184;28;20283;-74
2022/03/12 10:16:18;;;;;;;11.67;7.33;;;12.00;74.50;;;;;;5037763;28;20279;-74
2022/03/12 10:18:45;;;;;;;12.20;7.23;;;12.00;74.70;;;;;;5055377;28;20053;-73
2022/03/12 10:21:11;;;;;;;10.40;7.30;;;12.10;75.10;;;;;;5037706;28;20286;-72
2022/03/12 10:23:37;;;;;;;10.40;7.53;;;12.10;74.90;;;;;;5055254;28;20704;-74
2022/03/12 10:26:03;;;;;;;24.00;15.53;;;12.10;75.60;;;;;;5054961;28;20488;-78
2022/03/12 10:28:34;;;;;;;10.30;8.00;;;12.20;76.20;;;;;;5055169;28;20040;-73
2022/03/12 10:31:05;;;;;;;12.37;7.97;;;12.20;75.90;;;;;;5054964;28;20311;-73
2022/03/12 10:33:31;;;;;;;12.57;7.40;;;12.20;76.30;;;;;;5055209;28;20317;-74
2022/03/12 10:36:12;;;;;;;10.97;7.77;;;12.20;76.30;;;;;;5054679;28;20321;-73
2022/03/12 10:38:40;;;;;;;17.43;10.13;;;12.30;76.80;;;;;;5055057;28;20747;-71
2022/03/12 10:41:07;;;;;;;9.20;6.90;;;12.30;77.10;;;;;;5054511;28;20506;-76
2022/03/12 10:43:46;;;;;;;11.20;7.07;;;12.30;77.10;;;;;;5054821;28;20294;-73
2022/03/12 10:46:21;;;;;;;13.37;9.23;;;12.40;77.60;;;;;;5037073;28;20362;-74
2022/03/12 10:48:55;;;;;;;10.40;7.33;;;12.40;77.20;;;;;;5037289;28;20283;-81
2022/03/12 10:51:26;;;;;;;10.90;7.03;;;12.50;77.50;;;;;;5055099;28;20287;-73
2022/03/12 10:54:05;;;;;;;13.70;7.80;;;12.50;77.10;;;;;;5054568;28;20091;-74
2022/03/12 10:56:50;;;;;;;11.77;7.07;;;12.50;77.40;;;;;;5037246;28;20291;-74
2022/03/12 10:59:19;;;;;;;;;;;12.60;77.20;;;;;;5055126;28;20275;-74
2022/03/12 11:01:50;;;;;;;9.10;6.37;;;12.50;77.30;;;;;;5036840;28;19920;-74
2022/03/12 11:04:24;;;;;;;13.20;8.33;;;12.60;77.60;;;;;;5054440;28;20287;-73
2022/03/12 11:06:51;;;;;;;15.67;9.50;;;12.60;77.50;;;;;;5054309;28;20276;-77
2022/03/12 11:09:31;;;;;;;15.23;8.27;;;12.70;77.60;;;;;;5036060;28;20319;-76
2022/03/12 11:12:00;;;;;;;9.70;6.80;;;12.70;77.20;;;;;;5053782;28;20759;-75
2022/03/12 11:14:29;;;;;;;11.70;7.63;;;12.70;76.50;;;;;;5020242;28;20333;-72
2022/03/12 11:16:55;;;;;;;11.93;6.70;;;12.80;76.50;;;;;;5036513;28;20283;-74
2022/03/12 11:19:41;;;;;;;9.80;6.60;;;12.80;76.50;;;;;;5020284;28;20287;-73
2022/03/12 11:22:12;;;;;;;15.23;11.00;;;12.80;76.40;;;;;;5036109;28;20308;-72
2022/03/12 11:24:54;;;;;;;9.47;7.10;;;12.90;76.40;;;;;;5054067;28;20353;-72
2022/03/12 11:27:32;;;;;;;12.73;6.77;;;13.00;76.50;;;;;;5036294;28;20353;-81
2022/03/12 11:30:01;;;;;;;12.70;6.97;;;13.00;76.10;;;;;;5036148;28;20318;-73
2022/03/12 11:32:30;;;;;;;11.80;7.47;;;13.00;76.20;;;;;;5036492;28;20293;-80
2022/03/12 11:35:08;;;;;;;12.73;7.23;;;13.10;76.50;;;;;;5035825;28;20611;-73
2022/03/12 11:37:36;;;;;;;10.80;6.53;;;13.10;76.50;;;;;;5054065;28;20283;-72
2022/03/12 11:40:04;;;;;;;12.47;7.27;;;13.20;76.30;;;;;;5053391;28;20283;-71
2022/03/12 11:42:35;;;;;;;13.50;7.00;;;13.30;76.20;;;;;;5036043;28;20296;-71
2022/03/12 11:45:04;;;;;;;11.07;6.57;;;13.30;76.10;;;;;;5035542;28;20370;-71
2022/03/12 11:47:31;;;;;;;11.10;5.70;;;13.30;76.10;;;;;;5020097;28;20358;-71
2022/03/12 11:49:58;;;;;;;9.27;5.97;;;13.40;76.00;;;;;;5053314;28;20294;-71
2022/03/12 11:52:24;;;;;;;8.57;5.27;;;13.40;75.70;;;;;;5034876;28;20784;-71
2022/03/12 11:54:54;;;;;;;11.90;7.93;;;13.50;75.40;;;;;;5053644;28;20271;-76
2022/03/12 11:57:27;;;;;;;15.13;10.27;;;13.50;75.30;;;;;;5053493;28;20041;-74
2022/03/12 11:59:53;;;;;;;12.10;7.07;;;13.60;75.30;;;;;;5053498;28;20280;-73
2022/03/12 12:02:35;;;;;;;17.40;6.50;;;13.60;75.10;;;;;;5053188;28;20303;-72
2022/03/12 12:05:04;;;;;;;10.90;5.87;;;13.60;74.00;;;;;;5053074;28;20294;-73
2022/03/12 12:07:34;;;;;;;10.03;6.23;;;13.70;74.60;;;;;;5035678;28;20704;-73
2022/03/12 12:10:00;;;;;;;8.27;6.60;;;13.70;74.40;;;;;;5031521;28;20299;-73
2022/03/12 12:12:27;;;;;;;11.93;5.97;;;13.70;74.30;;;;;;5033342;28;20333;-73
2022/03/12 12:14:56;;;;;;;9.03;5.70;;;13.70;74.00;;;;;;5033247;28;20280;-73
2022/03/12 12:17:21;;;;;;;9.83;6.37;;;13.70;73.30;;;;;;5032074;28;20401;-73
2022/03/12 12:19:47;;;;;;;9.53;6.20;;;13.70;73.10;;;;;;5033148;28;20279;-73
2022/03/12 12:22:14;;;;;;;9.73;6.90;;;13.70;72.70;;;;;;5030810;28;20129;-73
2022/03/12 12:24:42;;;;;;;10.67;6.40;;;13.70;72.80;;;;;;5033160;28;20398;-75
2022/03/12 12:27:14;;;;;;;9.23;6.50;;;13.70;72.30;;;;;;5031618;28;20306;-73
2022/03/12 12:29:49;;;;;;;10.57;6.90;;;13.70;72.20;;;;;;5031813;28;20284;-73
2022/03/12 12:32:17;;;;;;;8.68;6.45;;;13.80;72.20;;;;;;5032740;28;20276;-72
2022/03/12 12:35:18;;;;;;;13.47;7.30;;;13.80;72.30;;;;;;5032479;28;20045;-71
2022/03/12 12:37:58;;;;;;;11.67;7.10;;;13.80;72.20;;;;;;5033064;28;20326;-71
2022/03/12 12:40:32;;;;;;;9.90;7.27;;;13.80;71.90;;;;;;5033073;28;20914;-71
2022/03/12 12:43:01;;;;;;;11.03;6.73;;;13.90;72.10;;;;;;5033100;28;20292;-71
2022/03/12 12:45:31;;;;;;;11.83;6.13;;;13.90;71.90;;;;;;5031911;28;20312;-71
2022/03/12 12:48:15;;;;;;;12.17;6.37;;;13.90;72.00;;;;;;5032662;28;20772;-70
2022/03/12 12:51:20;;;;;;;11.27;6.50;;;14.00;71.80;;;;;;5032892;28;20284;-74